sensor_id;sensor_type;location;lat;lon;timestamp;P1;durP1;ratioP1;P2;durP2;ratioP2
14526;SDS011;7350;51.208;4.238;2022-12-08T00:01:25;14.33;;;10.53;;
14526;SDS011;7350;51.208;4.238;2022-12-08T00:03:53;16.07;;;10.07;;
14526;SDS011;7350;51.208;4.238;2022-12-08T00:06:22;14.10;;;10.17;;
14526;SDS011;7350;51.208;4.238;2022-12-08T00:09:13;15.67;;;10.60;;
14526;SDS011;7350;51.208;4.238;2022-12-08T00:11:49;16.27;;;11.07;;
14526;SDS011;7350;51.208;4.238;2022-12-08T00:14:18;17.87;;;11.50;;
14526;SDS011;7350;51.208;4.238;2022-12-08T00:16:47;16.27;;;11.53;;
14526;SDS011;7350;51.208;4.238;2022-12-08T00:19:14;21.37;;;12.47;;
14526;SDS011;7350;51.208;4.238;2022-12-08T00:21:41;17.67;;;11.20;;
14526;SDS011;7350;51.208;4.238;2022-12-08T00:24:08;15.97;;;11.57;;
14526;SDS011;7350;51.208;4.238;2022-12-08T00:26:36;14.87;;;11.73;;
14526;SDS011;7350;51.208;4.238;2022-12-08T00:29:03;15.27;;;11.37;;
14526;SDS011;7350;51.208;4.238;2022-12-08T00:31:31;17.50;;;11.40;;
14526;SDS011;7350;51.208;4.238;2022-12-08T00:33:58;17.67;;;12.73;;
14526;SDS011;7350;51.208;4.238;2022-12-08T00:36:25;15.83;;;12.80;;
14526;SDS011;7350;51.208;4.238;2022-12-08T00:38:52;16.17;;;12.03;;
14526;SDS011;7350;51.208;4.238;2022-12-08T00:41:20;18.87;;;12.43;;
14526;SDS011;7350;51.208;4.238;2022-12-08T00:44:10;19.07;;;13.03;;
14526;SDS011;7350;51.208;4.238;2022-12-08T00:46:39;16.43;;;11.93;;
14526;SDS011;7350;51.208;4.238;2022-12-08T00:49:06;18.63;;;12.60;;
14526;SDS011;7350;51.208;4.238;2022-12-08T00:51:33;14.10;;;11.03;;
14526;SDS011;7350;51.208;4.238;2022-12-08T00:54:01;17.33;;;12.80;;
14526;SDS011;7350;51.208;4.238;2022-12-08T00:56:28;19.70;;;12.43;;
14526;SDS011;7350;51.208;4.238;2022-12-08T00:58:55;21.33;;;13.70;;
14526;SDS011;7350;51.208;4.238;2022-12-08T01:01:24;18.83;;;12.67;;
14526;SDS011;7350;51.208;4.238;2022-12-08T01:03:52;19.97;;;12.77;;
14526;SDS011;7350;51.208;4.238;2022-12-08T01:06:19;21.17;;;12.57;;
14526;SDS011;7350;51.208;4.238;2022-12-08T01:08:46;16.70;;;12.70;;
14526;SDS011;7350;51.208;4.238;2022-12-08T01:11:14;22.50;;;13.53;;
14526;SDS011;7350;51.208;4.238;2022-12-08T01:13:42;20.43;;;13.30;;
14526;SDS011;7350;51.208;4.238;2022-12-08T01:16:17;26.10;;;13.80;;
14526;SDS011;7350;51.208;4.238;2022-12-08T01:18:46;20.53;;;13.97;;
14526;SDS011;7350;51.208;4.238;2022-12-08T01:21:13;19.07;;;12.90;;
14526;SDS011;7350;51.208;4.238;2022-12-08T01:23:40;21.33;;;12.60;;
14526;SDS011;7350;51.208;4.238;2022-12-08T01:26:08;21.37;;;13.50;;
14526;SDS011;7350;51.208;4.238;2022-12-08T01:28:37;17.60;;;13.00;;
14526;SDS011;7350;51.208;4.238;2022-12-08T01:31:08;18.93;;;12.80;;
14526;SDS011;7350;51.208;4.238;2022-12-08T01:33:37;20.00;;;12.60;;
14526;SDS011;7350;51.208;4.238;2022-12-08T01:36:06;17.60;;;12.80;;
14526;SDS011;7350;51.208;4.238;2022-12-08T01:38:34;17.37;;;11.93;;
14526;SDS011;7350;51.208;4.238;2022-12-08T01:41:01;21.57;;;11.93;;
14526;SDS011;7350;51.208;4.238;2022-12-08T01:46:20;21.07;;;11.40;;
14526;SDS011;7350;51.208;4.238;2022-12-08T01:48:48;17.07;;;11.00;;
14526;SDS011;7350;51.208;4.238;2022-12-08T01:51:18;17.83;;;11.37;;
14526;SDS011;7350;51.208;4.238;2022-12-08T01:53:45;17.27;;;11.03;;
14526;SDS011;7350;51.208;4.238;2022-12-08T01:56:15;19.47;;;11.00;;
14526;SDS011;7350;51.208;4.238;2022-12-08T01:58:50;16.57;;;11.30;;
14526;SDS011;7350;51.208;4.238;2022-12-08T02:01:19;22.50;;;11.40;;
14526;SDS011;7350;51.208;4.238;2022-12-08T02:03:48;18.73;;;10.90;;
14526;SDS011;7350;51.208;4.238;2022-12-08T02:06:19;18.67;;;11.27;;
14526;SDS011;7350;51.208;4.238;2022-12-08T02:08:46;16.47;;;10.20;;
14526;SDS011;7350;51.208;4.238;2022-12-08T02:11:15;20.07;;;11.20;;
14526;SDS011;7350;51.208;4.238;2022-12-08T02:13:43;15.47;;;10.53;;
14526;SDS011;7350;51.208;4.238;2022-12-08T02:16:14;14.80;;;9.83;;
14526;SDS011;7350;51.208;4.238;2022-12-08T02:18:51;15.27;;;10.57;;
14526;SDS011;7350;51.208;4.238;2022-12-08T02:21:28;15.37;;;10.33;;
14526;SDS011;7350;51.208;4.238;2022-12-08T02:24:06;16.10;;;9.43;;
14526;SDS011;7350;51.208;4.238;2022-12-08T02:26:52;14.57;;;9.17;;
14526;SDS011;7350;51.208;4.238;2022-12-08T02:29:52;14.37;;;8.47;;
14526;SDS011;7350;51.208;4.238;2022-12-08T02:32:47;18.70;;;9.57;;
14526;SDS011;7350;51.208;4.238;2022-12-08T02:35:38;12.80;;;8.30;;
14526;SDS011;7350;51.208;4.238;2022-12-08T02:38:19;12.63;;;8.60;;
14526;SDS011;7350;51.208;4.238;2022-12-08T02:40:51;17.73;;;8.77;;
14526;SDS011;7350;51.208;4.238;2022-12-08T02:43:26;12.33;;;8.33;;
14526;SDS011;7350;51.208;4.238;2022-12-08T02:46:02;12.17;;;7.87;;
14526;SDS011;7350;51.208;4.238;2022-12-08T02:48:33;13.70;;;7.90;;
14526;SDS011;7350;51.208;4.238;2022-12-08T02:51:02;17.17;;;8.23;;
14526;SDS011;7350;51.208;4.238;2022-12-08T02:53:29;13.23;;;8.17;;
14526;SDS011;7350;51.208;4.238;2022-12-08T02:56:00;11.97;;;7.57;;
14526;SDS011;7350;51.208;4.238;2022-12-08T02:58:41;13.33;;;8.13;;
14526;SDS011;7350;51.208;4.238;2022-12-08T03:01:25;15.97;;;7.80;;
14526;SDS011;7350;51.208;4.238;2022-12-08T03:04:02;12.63;;;8.37;;
14526;SDS011;7350;51.208;4.238;2022-12-08T03:06:38;12.90;;;8.73;;
14526;SDS011;7350;51.208;4.238;2022-12-08T03:09:13;13.50;;;8.10;;
14526;SDS011;7350;51.208;4.238;2022-12-08T03:11:48;12.30;;;8.00;;
14526;SDS011;7350;51.208;4.238;2022-12-08T03:14:20;13.97;;;7.63;;
14526;SDS011;7350;51.208;4.238;2022-12-08T03:16:48;16.03;;;7.93;;
14526;SDS011;7350;51.208;4.238;2022-12-08T03:19:21;11.63;;;6.93;;
14526;SDS011;7350;51.208;4.238;2022-12-08T03:21:52;11.30;;;7.90;;
14526;SDS011;7350;51.208;4.238;2022-12-08T03:24:26;11.50;;;6.93;;
14526;SDS011;7350;51.208;4.238;2022-12-08T03:26:56;10.93;;;6.90;;
14526;SDS011;7350;51.208;4.238;2022-12-08T03:29:27;12.10;;;7.60;;
14526;SDS011;7350;51.208;4.238;2022-12-08T03:31:56;10.30;;;6.70;;
14526;SDS011;7350;51.208;4.238;2022-12-08T03:34:26;12.77;;;7.50;;
14526;SDS011;7350;51.208;4.238;2022-12-08T03:36:56;13.00;;;7.07;;
14526;SDS011;7350;51.208;4.238;2022-12-08T03:39:26;13.33;;;7.90;;
14526;SDS011;7350;51.208;4.238;2022-12-08T03:41:53;13.77;;;7.77;;
14526;SDS011;7350;51.208;4.238;2022-12-08T03:44:20;10.17;;;7.13;;
14526;SDS011;7350;51.208;4.238;2022-12-08T03:46:47;13.10;;;8.63;;
14526;SDS011;7350;51.208;4.238;2022-12-08T03:49:14;11.47;;;8.07;;
14526;SDS011;7350;51.208;4.238;2022-12-08T03:51:41;17.27;;;8.40;;
14526;SDS011;7350;51.208;4.238;2022-12-08T03:54:09;14.43;;;8.53;;
14526;SDS011;7350;51.208;4.238;2022-12-08T03:56:36;14.93;;;8.60;;
14526;SDS011;7350;51.208;4.238;2022-12-08T03:59:04;10.70;;;8.17;;
14526;SDS011;7350;51.208;4.238;2022-12-08T04:01:31;14.83;;;8.50;;
14526;SDS011;7350;51.208;4.238;2022-12-08T04:03:59;15.90;;;8.90;;
14526;SDS011;7350;51.208;4.238;2022-12-08T04:06:25;11.13;;;7.40;;
14526;SDS011;7350;51.208;4.238;2022-12-08T04:08:52;13.03;;;8.37;;
14526;SDS011;7350;51.208;4.238;2022-12-08T04:11:21;12.30;;;8.13;;
14526;SDS011;7350;51.208;4.238;2022-12-08T04:13:48;12.13;;;9.00;;
14526;SDS011;7350;51.208;4.238;2022-12-08T04:16:15;15.40;;;8.83;;
14526;SDS011;7350;51.208;4.238;2022-12-08T04:18:43;14.37;;;10.17;;
14526;SDS011;7350;51.208;4.238;2022-12-08T04:21:11;14.00;;;8.37;;
14526;SDS011;7350;51.208;4.238;2022-12-08T04:23:39;12.67;;;7.97;;
14526;SDS011;7350;51.208;4.238;2022-12-08T04:26:06;12.67;;;8.67;;
14526;SDS011;7350;51.208;4.238;2022-12-08T04:28:34;14.57;;;8.60;;
14526;SDS011;7350;51.208;4.238;2022-12-08T04:31:02;12.60;;;8.93;;
14526;SDS011;7350;51.208;4.238;2022-12-08T04:33:29;19.60;;;11.70;;
14526;SDS011;7350;51.208;4.238;2022-12-08T04:35:56;15.27;;;10.03;;
14526;SDS011;7350;51.208;4.238;2022-12-08T04:38:23;16.03;;;9.87;;
14526;SDS011;7350;51.208;4.238;2022-12-08T04:40:50;12.63;;;8.50;;
14526;SDS011;7350;51.208;4.238;2022-12-08T04:43:17;13.47;;;8.60;;
14526;SDS011;7350;51.208;4.238;2022-12-08T04:45:46;12.17;;;7.80;;
14526;SDS011;7350;51.208;4.238;2022-12-08T04:48:14;15.07;;;7.80;;
14526;SDS011;7350;51.208;4.238;2022-12-08T04:50:42;9.97;;;7.57;;
14526;SDS011;7350;51.208;4.238;2022-12-08T04:53:10;9.07;;;8.03;;
14526;SDS011;7350;51.208;4.238;2022-12-08T04:55:38;9.30;;;6.93;;
14526;SDS011;7350;51.208;4.238;2022-12-08T04:58:06;10.37;;;7.07;;
14526;SDS011;7350;51.208;4.238;2022-12-08T05:00:33;11.83;;;7.33;;
14526;SDS011;7350;51.208;4.238;2022-12-08T05:03:01;12.27;;;7.10;;
14526;SDS011;7350;51.208;4.238;2022-12-08T05:05:29;11.27;;;7.10;;
14526;SDS011;7350;51.208;4.238;2022-12-08T05:07:56;13.10;;;8.17;;
14526;SDS011;7350;51.208;4.238;2022-12-08T05:10:23;11.73;;;6.53;;
14526;SDS011;7350;51.208;4.238;2022-12-08T05:12:50;12.43;;;7.57;;
14526;SDS011;7350;51.208;4.238;2022-12-08T05:15:17;13.40;;;8.60;;
14526;SDS011;7350;51.208;4.238;2022-12-08T05:17:44;11.37;;;8.13;;
14526;SDS011;7350;51.208;4.238;2022-12-08T05:20:12;12.50;;;8.17;;
14526;SDS011;7350;51.208;4.238;2022-12-08T05:22:39;12.10;;;8.17;;
14526;SDS011;7350;51.208;4.238;2022-12-08T05:25:07;13.20;;;8.17;;
14526;SDS011;7350;51.208;4.238;2022-12-08T05:27:34;13.03;;;8.57;;
14526;SDS011;7350;51.208;4.238;2022-12-08T05:30:01;11.90;;;8.50;;
14526;SDS011;7350;51.208;4.238;2022-12-08T05:32:30;14.90;;;9.07;;
14526;SDS011;7350;51.208;4.238;2022-12-08T05:34:57;12.53;;;8.90;;
14526;SDS011;7350;51.208;4.238;2022-12-08T05:37:25;14.07;;;9.27;;
14526;SDS011;7350;51.208;4.238;2022-12-08T05:39:52;14.30;;;9.47;;
14526;SDS011;7350;51.208;4.238;2022-12-08T05:42:19;11.90;;;8.60;;
14526;SDS011;7350;51.208;4.238;2022-12-08T05:44:46;14.17;;;9.10;;
14526;SDS011;7350;51.208;4.238;2022-12-08T05:47:18;14.27;;;8.70;;
14526;SDS011;7350;51.208;4.238;2022-12-08T05:49:45;14.73;;;8.67;;
14526;SDS011;7350;51.208;4.238;2022-12-08T05:52:12;14.37;;;9.17;;
14526;SDS011;7350;51.208;4.238;2022-12-08T05:54:42;11.63;;;8.47;;
14526;SDS011;7350;51.208;4.238;2022-12-08T05:57:09;14.50;;;9.30;;
14526;SDS011;7350;51.208;4.238;2022-12-08T05:59:36;11.70;;;9.00;;
14526;SDS011;7350;51.208;4.238;2022-12-08T06:02:04;14.53;;;9.30;;
14526;SDS011;7350;51.208;4.238;2022-12-08T06:04:31;14.73;;;8.50;;
14526;SDS011;7350;51.208;4.238;2022-12-08T06:06:58;15.03;;;9.90;;
14526;SDS011;7350;51.208;4.238;2022-12-08T06:09:24;13.97;;;8.40;;
14526;SDS011;7350;51.208;4.238;2022-12-08T06:11:53;12.20;;;9.30;;
14526;SDS011;7350;51.208;4.238;2022-12-08T06:14:20;13.93;;;8.50;;
14526;SDS011;7350;51.208;4.238;2022-12-08T06:16:47;11.30;;;8.67;;
14526;SDS011;7350;51.208;4.238;2022-12-08T06:19:14;14.17;;;8.43;;
14526;SDS011;7350;51.208;4.238;2022-12-08T06:21:41;15.37;;;10.03;;
14526;SDS011;7350;51.208;4.238;2022-12-08T06:24:08;16.07;;;9.17;;
14526;SDS011;7350;51.208;4.238;2022-12-08T06:26:35;18.87;;;10.30;;
14526;SDS011;7350;51.208;4.238;2022-12-08T06:29:05;16.17;;;10.30;;
14526;SDS011;7350;51.208;4.238;2022-12-08T06:31:32;18.30;;;11.30;;
14526;SDS011;7350;51.208;4.238;2022-12-08T06:33:59;16.63;;;9.87;;
14526;SDS011;7350;51.208;4.238;2022-12-08T06:36:26;15.47;;;10.10;;
14526;SDS011;7350;51.208;4.238;2022-12-08T06:38:53;13.63;;;10.23;;
14526;SDS011;7350;51.208;4.238;2022-12-08T06:41:20;15.07;;;10.47;;
14526;SDS011;7350;51.208;4.238;2022-12-08T06:43:47;15.30;;;10.20;;
14526;SDS011;7350;51.208;4.238;2022-12-08T06:46:16;18.83;;;11.57;;
14526;SDS011;7350;51.208;4.238;2022-12-08T06:48:44;16.27;;;10.80;;
14526;SDS011;7350;51.208;4.238;2022-12-08T06:51:13;17.50;;;11.20;;
14526;SDS011;7350;51.208;4.238;2022-12-08T06:53:41;14.77;;;10.53;;
14526;SDS011;7350;51.208;4.238;2022-12-08T06:56:11;18.80;;;11.60;;
14526;SDS011;7350;51.208;4.238;2022-12-08T06:58:39;18.50;;;11.93;;
14526;SDS011;7350;51.208;4.238;2022-12-08T07:01:07;20.83;;;12.20;;
14526;SDS011;7350;51.208;4.238;2022-12-08T07:03:37;17.63;;;11.60;;
14526;SDS011;7350;51.208;4.238;2022-12-08T07:06:05;18.97;;;12.73;;
14526;SDS011;7350;51.208;4.238;2022-12-08T07:08:32;18.30;;;11.97;;
14526;SDS011;7350;51.208;4.238;2022-12-08T07:11:05;19.23;;;11.97;;
14526;SDS011;7350;51.208;4.238;2022-12-08T07:13:33;18.93;;;11.70;;
14526;SDS011;7350;51.208;4.238;2022-12-08T07:16:00;19.70;;;12.10;;
14526;SDS011;7350;51.208;4.238;2022-12-08T07:18:29;17.50;;;11.50;;
14526;SDS011;7350;51.208;4.238;2022-12-08T07:21:00;19.73;;;12.23;;
14526;SDS011;7350;51.208;4.238;2022-12-08T07:23:28;17.47;;;11.27;;
14526;SDS011;7350;51.208;4.238;2022-12-08T07:25:58;19.57;;;12.77;;
14526;SDS011;7350;51.208;4.238;2022-12-08T07:28:26;16.63;;;11.77;;
14526;SDS011;7350;51.208;4.238;2022-12-08T07:30:54;16.87;;;11.40;;
14526;SDS011;7350;51.208;4.238;2022-12-08T07:33:21;16.10;;;10.60;;
14526;SDS011;7350;51.208;4.238;2022-12-08T07:35:52;15.97;;;11.23;;
14526;SDS011;7350;51.208;4.238;2022-12-08T07:38:21;22.10;;;12.37;;
14526;SDS011;7350;51.208;4.238;2022-12-08T07:40:49;25.37;;;14.87;;
14526;SDS011;7350;51.208;4.238;2022-12-08T07:43:16;22.23;;;13.97;;
14526;SDS011;7350;51.208;4.238;2022-12-08T07:45:43;24.00;;;14.77;;
14526;SDS011;7350;51.208;4.238;2022-12-08T07:48:10;25.83;;;15.47;;
14526;SDS011;7350;51.208;4.238;2022-12-08T07:50:38;23.77;;;13.57;;
14526;SDS011;7350;51.208;4.238;2022-12-08T07:53:05;21.17;;;13.13;;
14526;SDS011;7350;51.208;4.238;2022-12-08T07:55:33;17.93;;;11.53;;
14526;SDS011;7350;51.208;4.238;2022-12-08T07:58:04;19.13;;;11.63;;
14526;SDS011;7350;51.208;4.238;2022-12-08T08:00:32;14.03;;;9.47;;
14526;SDS011;7350;51.208;4.238;2022-12-08T08:02:59;16.77;;;10.47;;
14526;SDS011;7350;51.208;4.238;2022-12-08T08:05:26;13.60;;;9.47;;
14526;SDS011;7350;51.208;4.238;2022-12-08T08:07:53;16.27;;;9.77;;
14526;SDS011;7350;51.208;4.238;2022-12-08T08:10:20;14.10;;;10.43;;
14526;SDS011;7350;51.208;4.238;2022-12-08T08:12:49;12.80;;;8.90;;
14526;SDS011;7350;51.208;4.238;2022-12-08T08:15:16;16.00;;;8.10;;
14526;SDS011;7350;51.208;4.238;2022-12-08T08:17:47;14.87;;;9.70;;
14526;SDS011;7350;51.208;4.238;2022-12-08T08:20:14;14.33;;;8.77;;
14526;SDS011;7350;51.208;4.238;2022-12-08T08:22:41;18.10;;;8.53;;
14526;SDS011;7350;51.208;4.238;2022-12-08T08:25:10;11.23;;;7.97;;
14526;SDS011;7350;51.208;4.238;2022-12-08T08:27:37;11.90;;;7.43;;
14526;SDS011;7350;51.208;4.238;2022-12-08T08:30:07;13.27;;;8.33;;
14526;SDS011;7350;51.208;4.238;2022-12-08T08:32:36;10.77;;;7.30;;
14526;SDS011;7350;51.208;4.238;2022-12-08T08:35:03;12.83;;;8.70;;
14526;SDS011;7350;51.208;4.238;2022-12-08T08:37:31;13.03;;;7.70;;
14526;SDS011;7350;51.208;4.238;2022-12-08T08:39:58;12.23;;;7.53;;
14526;SDS011;7350;51.208;4.238;2022-12-08T08:42:25;13.30;;;7.23;;
14526;SDS011;7350;51.208;4.238;2022-12-08T08:44:52;12.53;;;7.33;;
14526;SDS011;7350;51.208;4.238;2022-12-08T08:47:20;15.23;;;7.43;;
14526;SDS011;7350;51.208;4.238;2022-12-08T08:49:47;11.50;;;6.70;;
14526;SDS011;7350;51.208;4.238;2022-12-08T08:52:14;9.60;;;6.80;;
14526;SDS011;7350;51.208;4.238;2022-12-08T08:54:42;14.53;;;7.00;;
14526;SDS011;7350;51.208;4.238;2022-12-08T08:57:08;9.27;;;6.93;;
14526;SDS011;7350;51.208;4.238;2022-12-08T08:59:35;12.10;;;6.67;;
14526;SDS011;7350;51.208;4.238;2022-12-08T09:02:02;10.43;;;6.70;;
14526;SDS011;7350;51.208;4.238;2022-12-08T09:04:31;13.93;;;6.83;;
14526;SDS011;7350;51.208;4.238;2022-12-08T09:06:58;7.63;;;6.03;;
14526;SDS011;7350;51.208;4.238;2022-12-08T09:09:26;11.77;;;7.03;;
14526;SDS011;7350;51.208;4.238;2022-12-08T09:11:53;11.30;;;6.93;;
14526;SDS011;7350;51.208;4.238;2022-12-08T09:14:20;11.70;;;6.00;;
14526;SDS011;7350;51.208;4.238;2022-12-08T09:16:48;10.70;;;6.03;;
14526;SDS011;7350;51.208;4.238;2022-12-08T09:19:15;11.60;;;6.17;;
14526;SDS011;7350;51.208;4.238;2022-12-08T09:21:43;11.73;;;5.93;;
14526;SDS011;7350;51.208;4.238;2022-12-08T09:24:10;8.83;;;6.27;;
14526;SDS011;7350;51.208;4.238;2022-12-08T09:26:40;12.90;;;5.83;;
14526;SDS011;7350;51.208;4.238;2022-12-08T09:29:07;13.27;;;5.90;;
14526;SDS011;7350;51.208;4.238;2022-12-08T09:31:35;8.90;;;5.67;;
14526;SDS011;7350;51.208;4.238;2022-12-08T09:34:02;11.87;;;6.13;;
14526;SDS011;7350;51.208;4.238;2022-12-08T09:36:30;9.47;;;5.90;;
14526;SDS011;7350;51.208;4.238;2022-12-08T09:38:58;10.30;;;6.07;;
14526;SDS011;7350;51.208;4.238;2022-12-08T09:41:28;10.27;;;5.80;;
14526;SDS011;7350;51.208;4.238;2022-12-08T09:44:01;11.23;;;5.80;;
14526;SDS011;7350;51.208;4.238;2022-12-08T09:46:34;11.23;;;5.43;;
14526;SDS011;7350;51.208;4.238;2022-12-08T09:49:02;11.07;;;6.80;;
14526;SDS011;7350;51.208;4.238;2022-12-08T09:51:34;9.93;;;5.80;;
14526;SDS011;7350;51.208;4.238;2022-12-08T09:54:06;10.03;;;6.17;;
14526;SDS011;7350;51.208;4.238;2022-12-08T09:56:38;7.80;;;5.97;;
14526;SDS011;7350;51.208;4.238;2022-12-08T09:59:10;9.10;;;5.60;;
14526;SDS011;7350;51.208;4.238;2022-12-08T10:01:47;8.37;;;5.30;;
14526;SDS011;7350;51.208;4.238;2022-12-08T10:04:18;8.50;;;5.40;;
14526;SDS011;7350;51.208;4.238;2022-12-08T10:06:50;10.07;;;5.73;;
14526;SDS011;7350;51.208;4.238;2022-12-08T10:09:29;12.50;;;5.73;;
14526;SDS011;7350;51.208;4.238;2022-12-08T10:12:07;10.70;;;5.80;;
14526;SDS011;7350;51.208;4.238;2022-12-08T10:14:40;9.70;;;5.63;;
14526;SDS011;7350;51.208;4.238;2022-12-08T10:17:10;8.73;;;6.13;;
14526;SDS011;7350;51.208;4.238;2022-12-08T10:19:43;9.90;;;6.10;;
14526;SDS011;7350;51.208;4.238;2022-12-08T10:22:12;10.00;;;6.27;;
14526;SDS011;7350;51.208;4.238;2022-12-08T10:24:47;10.67;;;6.13;;
14526;SDS011;7350;51.208;4.238;2022-12-08T10:27:19;15.17;;;6.97;;
14526;SDS011;7350;51.208;4.238;2022-12-08T10:29:46;11.47;;;6.10;;
14526;SDS011;7350;51.208;4.238;2022-12-08T10:32:15;11.33;;;6.37;;
14526;SDS011;7350;51.208;4.238;2022-12-08T10:34:58;12.63;;;6.10;;
14526;SDS011;7350;51.208;4.238;2022-12-08T10:37:27;11.90;;;6.00;;
14526;SDS011;7350;51.208;4.238;2022-12-08T10:39:59;11.97;;;6.10;;
14526;SDS011;7350;51.208;4.238;2022-12-08T10:42:32;10.53;;;6.00;;
14526;SDS011;7350;51.208;4.238;2022-12-08T10:45:20;13.87;;;7.03;;
14526;SDS011;7350;51.208;4.238;2022-12-08T10:47:55;11.27;;;5.30;;
14526;SDS011;7350;51.208;4.238;2022-12-08T10:50:27;10.83;;;6.57;;
14526;SDS011;7350;51.208;4.238;2022-12-08T10:52:57;9.57;;;5.27;;
14526;SDS011;7350;51.208;4.238;2022-12-08T10:55:27;6.30;;;3.67;;
14526;SDS011;7350;51.208;4.238;2022-12-08T10:58:04;6.30;;;4.20;;
14526;SDS011;7350;51.208;4.238;2022-12-08T11:00:31;7.30;;;4.27;;
14526;SDS011;7350;51.208;4.238;2022-12-08T11:02:58;6.63;;;4.23;;
14526;SDS011;7350;51.208;4.238;2022-12-08T11:05:27;8.87;;;3.57;;
14526;SDS011;7350;51.208;4.238;2022-12-08T11:07:56;5.33;;;3.37;;
14526;SDS011;7350;51.208;4.238;2022-12-08T11:10:28;5.93;;;3.47;;
14526;SDS011;7350;51.208;4.238;2022-12-08T11:13:00;6.17;;;3.13;;
14526;SDS011;7350;51.208;4.238;2022-12-08T11:15:31;4.20;;;2.80;;
14526;SDS011;7350;51.208;4.238;2022-12-08T11:18:08;5.43;;;3.13;;
14526;SDS011;7350;51.208;4.238;2022-12-08T11:20:47;7.90;;;3.47;;
14526;SDS011;7350;51.208;4.238;2022-12-08T11:23:23;6.43;;;3.30;;
14526;SDS011;7350;51.208;4.238;2022-12-08T11:25:53;4.83;;;2.87;;
14526;SDS011;7350;51.208;4.238;2022-12-08T11:28:26;8.20;;;3.97;;
14526;SDS011;7350;51.208;4.238;2022-12-08T11:30:55;8.73;;;3.77;;
14526;SDS011;7350;51.208;4.238;2022-12-08T11:33:26;10.77;;;5.93;;
14526;SDS011;7350;51.208;4.238;2022-12-08T11:35:56;11.50;;;7.13;;
14526;SDS011;7350;51.208;4.238;2022-12-08T11:38:27;12.70;;;7.67;;
14526;SDS011;7350;51.208;4.238;2022-12-08T11:40:59;11.47;;;7.27;;
14526;SDS011;7350;51.208;4.238;2022-12-08T11:43:35;17.27;;;6.67;;
14526;SDS011;7350;51.208;4.238;2022-12-08T11:46:10;11.63;;;6.93;;
14526;SDS011;7350;51.208;4.238;2022-12-08T11:48:42;12.03;;;7.87;;
14526;SDS011;7350;51.208;4.238;2022-12-08T11:51:16;11.40;;;8.00;;
14526;SDS011;7350;51.208;4.238;2022-12-08T11:53:49;14.83;;;8.70;;
14526;SDS011;7350;51.208;4.238;2022-12-08T11:56:28;18.43;;;9.10;;
14526;SDS011;7350;51.208;4.238;2022-12-08T11:58:59;13.97;;;8.47;;
14526;SDS011;7350;51.208;4.238;2022-12-08T12:01:31;17.37;;;9.17;;
14526;SDS011;7350;51.208;4.238;2022-12-08T12:03:59;20.03;;;9.30;;
14526;SDS011;7350;51.208;4.238;2022-12-08T12:06:41;12.77;;;8.87;;
14526;SDS011;7350;51.208;4.238;2022-12-08T12:09:23;13.73;;;8.53;;
14526;SDS011;7350;51.208;4.238;2022-12-08T12:12:02;12.73;;;8.30;;
14526;SDS011;7350;51.208;4.238;2022-12-08T12:14:46;15.53;;;8.80;;
14526;SDS011;7350;51.208;4.238;2022-12-08T12:17:29;15.83;;;6.60;;
14526;SDS011;7350;51.208;4.238;2022-12-08T12:20:08;3.57;;;2.60;;
14526;SDS011;7350;51.208;4.238;2022-12-08T12:22:40;2.73;;;1.70;;
14526;SDS011;7350;51.208;4.238;2022-12-08T12:25:15;2.17;;;1.90;;
14526;SDS011;7350;51.208;4.238;2022-12-08T12:27:45;3.90;;;1.73;;
14526;SDS011;7350;51.208;4.238;2022-12-08T12:30:18;2.23;;;1.60;;
14526;SDS011;7350;51.208;4.238;2022-12-08T12:32:47;1.50;;;1.23;;
14526;SDS011;7350;51.208;4.238;2022-12-08T12:35:20;1.70;;;1.33;;
14526;SDS011;7350;51.208;4.238;2022-12-08T12:37:55;1.20;;;1.10;;
14526;SDS011;7350;51.208;4.238;2022-12-08T12:40:26;1.60;;;0.90;;
14526;SDS011;7350;51.208;4.238;2022-12-08T12:43:13;1.17;;;0.70;;
14526;SDS011;7350;51.208;4.238;2022-12-08T12:48:53;0.97;;;0.90;;
14526;SDS011;7350;51.208;4.238;2022-12-08T12:51:59;1.70;;;0.53;;
14526;SDS011;7350;51.208;4.238;2022-12-08T12:54:26;2.20;;;1.00;;
14526;SDS011;7350;51.208;4.238;2022-12-08T12:56:54;1.97;;;1.00;;
14526;SDS011;7350;51.208;4.238;2022-12-08T12:59:35;1.53;;;0.80;;
14526;SDS011;7350;51.208;4.238;2022-12-08T13:02:17;2.37;;;0.80;;
14526;SDS011;7350;51.208;4.238;2022-12-08T13:04:51;1.33;;;0.90;;
14526;SDS011;7350;51.208;4.238;2022-12-08T13:07:33;4.63;;;2.93;;
14526;SDS011;7350;51.208;4.238;2022-12-08T13:10:10;1.60;;;1.00;;
14526;SDS011;7350;51.208;4.238;2022-12-08T13:12:43;2.57;;;1.30;;
14526;SDS011;7350;51.208;4.238;2022-12-08T13:15:16;3.53;;;1.53;;
14526;SDS011;7350;51.208;4.238;2022-12-08T13:17:46;5.10;;;2.20;;
14526;SDS011;7350;51.208;4.238;2022-12-08T13:20:17;3.60;;;2.20;;
14526;SDS011;7350;51.208;4.238;2022-12-08T13:25:51;5.47;;;2.20;;
14526;SDS011;7350;51.208;4.238;2022-12-08T13:28:33;2.27;;;1.57;;
14526;SDS011;7350;51.208;4.238;2022-12-08T13:31:42;2.10;;;1.40;;
14526;SDS011;7350;51.208;4.238;2022-12-08T13:34:14;3.60;;;1.33;;
14526;SDS011;7350;51.208;4.238;2022-12-08T13:39:43;3.47;;;1.97;;
14526;SDS011;7350;51.208;4.238;2022-12-08T13:42:16;4.70;;;2.10;;
14526;SDS011;7350;51.208;4.238;2022-12-08T13:44:47;4.27;;;2.13;;
14526;SDS011;7350;51.208;4.238;2022-12-08T13:47:21;5.27;;;2.50;;
14526;SDS011;7350;51.208;4.238;2022-12-08T13:49:53;5.87;;;3.50;;
14526;SDS011;7350;51.208;4.238;2022-12-08T13:52:28;4.83;;;3.57;;
14526;SDS011;7350;51.208;4.238;2022-12-08T13:54:58;10.47;;;4.80;;
14526;SDS011;7350;51.208;4.238;2022-12-08T13:57:29;5.73;;;4.30;;
14526;SDS011;7350;51.208;4.238;2022-12-08T13:59:59;4.67;;;3.80;;
14526;SDS011;7350;51.208;4.238;2022-12-08T14:02:28;5.23;;;3.77;;
14526;SDS011;7350;51.208;4.238;2022-12-08T14:05:00;8.23;;;3.93;;
14526;SDS011;7350;51.208;4.238;2022-12-08T14:07:27;6.10;;;4.00;;
14526;SDS011;7350;51.208;4.238;2022-12-08T14:09:54;5.13;;;4.03;;
14526;SDS011;7350;51.208;4.238;2022-12-08T14:12:24;4.23;;;3.80;;
14526;SDS011;7350;51.208;4.238;2022-12-08T14:14:52;7.20;;;4.90;;
14526;SDS011;7350;51.208;4.238;2022-12-08T14:17:23;8.17;;;4.33;;
14526;SDS011;7350;51.208;4.238;2022-12-08T14:19:55;5.83;;;4.33;;
14526;SDS011;7350;51.208;4.238;2022-12-08T14:22:23;5.93;;;4.50;;
14526;SDS011;7350;51.208;4.238;2022-12-08T14:24:57;7.33;;;4.67;;
14526;SDS011;7350;51.208;4.238;2022-12-08T14:27:24;4.60;;;3.50;;
14526;SDS011;7350;51.208;4.238;2022-12-08T14:29:54;4.80;;;3.80;;
14526;SDS011;7350;51.208;4.238;2022-12-08T14:32:24;6.50;;;4.23;;
14526;SDS011;7350;51.208;4.238;2022-12-08T14:34:56;4.40;;;3.67;;
14526;SDS011;7350;51.208;4.238;2022-12-08T14:37:26;5.67;;;3.50;;
14526;SDS011;7350;51.208;4.238;2022-12-08T14:39:57;5.20;;;4.17;;
14526;SDS011;7350;51.208;4.238;2022-12-08T14:42:27;5.87;;;4.23;;
14526;SDS011;7350;51.208;4.238;2022-12-08T14:44:59;7.93;;;4.77;;
14526;SDS011;7350;51.208;4.238;2022-12-08T14:47:29;11.40;;;6.20;;
14526;SDS011;7350;51.208;4.238;2022-12-08T14:49:59;10.47;;;6.03;;
14526;SDS011;7350;51.208;4.238;2022-12-08T14:52:27;10.13;;;5.70;;
14526;SDS011;7350;51.208;4.238;2022-12-08T14:54:55;10.60;;;5.13;;
14526;SDS011;7350;51.208;4.238;2022-12-08T14:57:26;9.37;;;5.63;;
14526;SDS011;7350;51.208;4.238;2022-12-08T15:00:03;8.20;;;4.97;;
14526;SDS011;7350;51.208;4.238;2022-12-08T15:02:33;10.77;;;5.03;;
14526;SDS011;7350;51.208;4.238;2022-12-08T15:05:09;6.27;;;4.30;;
14526;SDS011;7350;51.208;4.238;2022-12-08T15:07:43;8.83;;;4.90;;
14526;SDS011;7350;51.208;4.238;2022-12-08T15:10:20;8.17;;;4.87;;
14526;SDS011;7350;51.208;4.238;2022-12-08T15:15:48;11.30;;;6.53;;
14526;SDS011;7350;51.208;4.238;2022-12-08T15:18:17;15.17;;;7.83;;
14526;SDS011;7350;51.208;4.238;2022-12-08T15:20:48;12.10;;;8.27;;
14526;SDS011;7350;51.208;4.238;2022-12-08T15:23:24;13.13;;;8.40;;